Cartersville, GA (30121)

7:08 PM EST on February 09, 2016 (GMT -0500)
Chestnut Ridge | | Change Station
CLOSE
Current Station
Personal Weather Station
Location: Cartersville, GA
Elevation: 873 ft
Nearby Weather Stations
Active Advisory: Winter Weather Advisory

Elev 873 ft 34.24 °N, 84.81 °W | Updated 4 seconds ago

Overcast
Overcast
29.3 °F
Feels Like 29 °F
N
0.0
Wind Variable Wind from North
Gusts 1.6 mph

Today
High -- | Low -- °F
--% Chance of Precip.
Yesterday
High -- | Low -- °F
Precip. -- in
Pressure 30.00 in
Visibility 10.0 miles
Clouds Few 5500 ft
Overcast 9000 ft
Windchill 29 °F
Dew Point 20 °F
Humidity 67%
Rainfall 0.00 in
Snow Depth Not available.
7:30 AM 6:16 PM
Waxing Crescent, 3% visible
METAR KVPC 092353Z AUTO 00000KT 10SM FEW055 OVC090 M01/M07 A3000 RMK AO2 SLP159 60000 T10111072 10017 21011 51033
Pressure 30.00 in
Visibility 10.0 miles
Clouds Few 5500 ft
Overcast 9000 ft
Windchill 29 °F
Dew Point 20 °F
Humidity 67%
Rainfall 0.00 in
Snow Depth Not available.
7:30 AM 6:16 PM
Waxing Crescent, 3% visible
METAR KVPC 092353Z AUTO 00000KT 10SM FEW055 OVC090 M01/M07 A3000 RMK AO2 SLP159 60000 T10111072 10017 21011 51033

10-Day Weather Forecast

Almanac

Astronomy

Feb. 09, 2016 Rise Set
Actual Time
Civil Twilight
Nautical Twilight
Astronomical Twilight
Moon
Length of Visible Light
Length of Day
Tomorrow will be .
, % of the Moon is Illuminated

Today's Extremes

State Highs State Lows

Community

WunderPhotos

Upload Photos

1,891,744 photos uploaded!

WunderBlog® & News

Nearby

Air Quality

  Air Quality AQ Index Pollutant
Not available.

Snow Depth

Station Depth Elevation

Earthquake Activity

City Distance Mag. Time & Date
Minimum magnitude displayed is 2.5.

Coastal Water Temperatures

Place Temperature

Stations

Nearby Weather Stations

Station Location Temp. Windchill Dew Point Humidity Wind Precip. Elev Updated Type
                   

Watches & Warnings

Winter Weather Advisory
Issued: 3:00 PM EST Feb. 9, 2016 – National Weather Service

... Winter Weather Advisory remains in effect until 10 am EST
Wednesday...

* locations... northwest Georgia.

* Hazard types... snow showers and black ice.

* Accumulations... dusting up to 1 inch of additional snow.

* Impacts... any new snowfall combined with temperatures falling
below freezing will increase the threat of icy roads after
sunset this evening. Secondary roads along with bridges and
overpasses will be most prone to the icy conditions.

Precautionary/preparedness actions...

A Winter Weather Advisory for snow means that periods of snow
will cause primarily travel difficulties. Be prepared for snow
covered roads and limited visibilities... and use caution while
driving.



Djn